createdAt,value
2022-10-14T00:00:18.341Z,16.50
2022-10-14T00:03:04.168Z,16.50
2022-10-14T00:05:49.849Z,16.50
2022-10-14T00:08:35.717Z,16.50
2022-10-14T00:11:28.273Z,16.50
2022-10-14T00:14:17.900Z,16.40
2022-10-14T00:17:04.338Z,16.40
2022-10-14T00:19:50.130Z,16.40
2022-10-14T00:22:36.462Z,16.40
2022-10-14T00:25:22.291Z,16.40
2022-10-14T00:28:07.704Z,16.40
2022-10-14T00:30:57.921Z,16.30
2022-10-14T00:33:44.622Z,16.40
2022-10-14T00:36:30.862Z,16.30
2022-10-14T00:39:16.904Z,16.30
2022-10-14T00:42:02.786Z,16.30
2022-10-14T00:44:51.629Z,16.30
2022-10-14T00:47:37.980Z,16.30
2022-10-14T00:50:27.534Z,16.30
2022-10-14T00:53:14.460Z,16.30
2022-10-14T00:56:00.198Z,16.20
2022-10-14T00:58:46.999Z,16.10
2022-10-14T01:01:34.373Z,16.20
2022-10-14T01:04:20.594Z,16.10
2022-10-14T01:07:31.303Z,16.10
2022-10-14T01:10:23.905Z,16.10
2022-10-14T01:13:35.336Z,16.20
2022-10-14T01:16:40.561Z,16.00
2022-10-14T01:19:56.178Z,15.80
2022-10-14T01:22:58.550Z,15.90
2022-10-14T01:26:20.157Z,15.80
2022-10-14T01:29:30.594Z,15.90
2022-10-14T01:32:24.751Z,15.80
2022-10-14T01:35:10.240Z,15.80
2022-10-14T01:38:01.785Z,15.90
2022-10-14T01:40:58.543Z,15.70
2022-10-14T01:43:47.837Z,15.60
2022-10-14T01:46:38.775Z,15.60
2022-10-14T01:49:33.381Z,15.70
2022-10-14T01:52:24.757Z,15.70
2022-10-14T01:55:17.019Z,15.70
2022-10-14T01:58:04.826Z,15.70
2022-10-14T02:00:51.082Z,15.60
2022-10-14T02:03:45.232Z,15.60
2022-10-14T02:06:35.775Z,15.70
2022-10-14T02:09:24.938Z,15.60
2022-10-14T02:12:17.053Z,15.60
2022-10-14T02:15:12.341Z,15.60
2022-10-14T02:18:24.717Z,15.60
2022-10-14T02:21:31.480Z,15.60
2022-10-14T02:24:42.798Z,15.70
2022-10-14T02:27:29.432Z,15.60
2022-10-14T02:30:17.604Z,15.60
2022-10-14T02:33:04.732Z,15.60
2022-10-14T02:35:52.449Z,15.50
2022-10-14T02:38:39.194Z,15.40
2022-10-14T02:41:31.157Z,15.40
2022-10-14T02:44:19.555Z,15.40
2022-10-14T02:47:05.873Z,15.50
2022-10-14T02:49:52.328Z,15.50
2022-10-14T02:52:38.340Z,15.50
2022-10-14T02:55:23.855Z,15.50
2022-10-14T02:58:10.232Z,15.50
2022-10-14T03:00:56.366Z,15.50
2022-10-14T03:03:43.926Z,15.40
2022-10-14T03:06:29.430Z,15.30
2022-10-14T03:09:18.306Z,15.20
2022-10-14T03:12:07.699Z,15.20
2022-10-14T03:14:53.897Z,15.20
2022-10-14T03:17:42.036Z,15.20
2022-10-14T03:20:28.450Z,15.30
2022-10-14T03:23:16.275Z,15.30
2022-10-14T03:26:05.619Z,15.20
2022-10-14T03:28:56.834Z,15.10
2022-10-14T03:31:48.015Z,15.10
2022-10-14T03:34:43.836Z,15.20
2022-10-14T03:37:34.946Z,15.20
2022-10-14T03:40:22.657Z,15.30
2022-10-14T03:43:09.637Z,15.20
2022-10-14T03:46:04.905Z,15.20
2022-10-14T03:48:51.518Z,15.20
2022-10-14T03:51:37.227Z,15.20
2022-10-14T03:54:33.474Z,15.10
2022-10-14T03:57:19.944Z,15.10
2022-10-14T04:00:11.161Z,15.10
2022-10-14T04:02:59.801Z,15.20
2022-10-14T04:05:52.545Z,15.20
2022-10-14T04:08:41.861Z,15.20
2022-10-14T04:11:38.608Z,15.20
2022-10-14T04:14:28.358Z,15.20
2022-10-14T04:17:16.620Z,15.20
2022-10-14T04:20:02.856Z,15.20
2022-10-14T04:22:48.740Z,15.20
2022-10-14T04:25:39.737Z,15.10
2022-10-14T04:28:26.186Z,15.10
2022-10-14T04:31:23.113Z,15.10
2022-10-14T04:34:15.539Z,15.10
2022-10-14T04:37:01.732Z,15.10
2022-10-14T04:40:03.913Z,15.00
2022-10-14T04:42:59.010Z,14.90
2022-10-14T04:45:57.081Z,14.80
2022-10-14T04:48:47.557Z,14.90
2022-10-14T04:51:34.429Z,14.90
2022-10-14T04:54:20.206Z,14.90
2022-10-14T04:57:13.330Z,14.70
2022-10-14T05:00:03.786Z,14.80
2022-10-14T05:03:24.936Z,14.80
2022-10-14T05:06:10.818Z,14.70
2022-10-14T05:09:01.650Z,14.60
2022-10-14T05:11:47.946Z,14.60
2022-10-14T05:14:39.020Z,14.60
2022-10-14T05:17:48.280Z,14.40
2022-10-14T05:20:38.661Z,14.40
2022-10-14T05:23:24.550Z,14.50
2022-10-14T05:26:11.403Z,14.60
2022-10-14T05:28:59.431Z,14.50
2022-10-14T05:31:45.430Z,14.40
2022-10-14T05:34:50.995Z,14.20
2022-10-14T05:37:45.134Z,14.30
2022-10-14T05:40:31.360Z,14.40
2022-10-14T05:43:18.896Z,14.40
2022-10-14T05:46:04.867Z,14.40
2022-10-14T05:48:57.992Z,14.40
2022-10-14T05:51:43.810Z,14.40
2022-10-14T05:54:36.673Z,14.40
2022-10-14T05:57:24.646Z,14.40
2022-10-14T06:00:11.786Z,14.40
2022-10-14T06:03:03.271Z,14.40
2022-10-14T06:05:49.989Z,14.30
2022-10-14T06:08:35.814Z,14.50
2022-10-14T06:11:21.173Z,14.60
2022-10-14T06:14:08.141Z,14.60
2022-10-14T06:16:54.493Z,14.60
2022-10-14T06:19:40.862Z,14.60
2022-10-14T06:22:27.690Z,14.60
2022-10-14T06:25:13.249Z,14.70
2022-10-14T06:28:03.826Z,14.80
2022-10-14T06:30:52.623Z,14.90
2022-10-14T06:33:38.547Z,14.80
2022-10-14T06:36:25.398Z,14.80
2022-10-14T06:39:11.365Z,14.80
2022-10-14T06:41:57.207Z,14.80
2022-10-14T06:44:43.047Z,14.80
2022-10-14T06:47:29.545Z,14.90
2022-10-14T06:50:15.381Z,15.00
2022-10-14T06:53:00.883Z,15.00
2022-10-14T06:55:46.457Z,14.90
2022-10-14T06:58:33.374Z,14.90
2022-10-14T07:01:18.883Z,15.00
2022-10-14T07:04:05.603Z,14.90
2022-10-14T07:06:51.860Z,14.70
2022-10-14T07:09:37.729Z,14.70
2022-10-14T07:12:24.821Z,14.60
2022-10-14T07:15:11.104Z,14.70
2022-10-14T07:17:57.106Z,14.70
2022-10-14T07:20:42.798Z,14.80
2022-10-14T07:23:28.672Z,14.90
2022-10-14T07:26:14.440Z,14.80
2022-10-14T07:29:00.968Z,15.00
2022-10-14T07:31:47.599Z,15.00
2022-10-14T07:34:36.174Z,14.80
2022-10-14T07:37:22.294Z,14.80
2022-10-14T07:40:09.898Z,14.90
2022-10-14T07:42:56.389Z,14.90
2022-10-14T07:45:47.096Z,15.20
2022-10-14T07:48:52.205Z,15.20
2022-10-14T07:51:41.474Z,15.10
2022-10-14T07:54:30.059Z,15.00
2022-10-14T07:57:16.764Z,15.10
2022-10-14T08:00:03.924Z,15.30
2022-10-14T08:02:57.913Z,15.40
2022-10-14T08:05:44.467Z,15.30
2022-10-14T08:08:31.156Z,15.40
2022-10-14T08:11:25.754Z,15.60
2022-10-14T08:14:11.963Z,15.80
2022-10-14T08:16:58.151Z,16.00
2022-10-14T08:19:44.274Z,15.90
2022-10-14T08:22:31.803Z,16.00
2022-10-14T08:25:18.061Z,16.10
2022-10-14T08:28:03.765Z,16.00
2022-10-14T08:30:49.363Z,16.10
2022-10-14T08:33:34.927Z,16.00
2022-10-14T08:36:22.335Z,15.70
2022-10-14T08:42:24.870Z,15.80
2022-10-14T08:45:19.341Z,15.90
2022-10-14T08:48:17.699Z,15.80
2022-10-14T08:51:09.921Z,15.90
2022-10-14T08:54:05.999Z,15.90
2022-10-14T08:56:53.118Z,15.70
2022-10-14T08:59:41.708Z,15.90
2022-10-14T09:02:38.836Z,16.10
2022-10-14T09:05:26.671Z,16.30
2022-10-14T09:08:17.658Z,16.10
2022-10-14T09:11:04.386Z,16.10
2022-10-14T09:13:59.597Z,16.10
2022-10-14T09:16:51.844Z,16.30
2022-10-14T09:20:16.958Z,16.20
2022-10-14T09:23:12.762Z,16.30
2022-10-14T09:26:00.098Z,16.40
2022-10-14T09:28:48.881Z,16.40
2022-10-14T09:31:35.311Z,16.50
2022-10-14T09:34:29.951Z,16.50
2022-10-14T09:37:20.270Z,16.70
2022-10-14T09:40:09.169Z,16.70
2022-10-14T09:43:05.836Z,16.90
2022-10-14T09:45:55.133Z,17.00
2022-10-14T09:48:52.660Z,17.00
2022-10-14T09:51:43.463Z,17.20
2022-10-14T09:54:31.669Z,17.40
2022-10-14T09:57:20.495Z,17.50
2022-10-14T10:00:08.204Z,17.50
2022-10-14T10:02:55.181Z,17.60
2022-10-14T10:05:41.574Z,17.90
2022-10-14T10:08:28.441Z,18.00
2022-10-14T10:11:14.327Z,18.00
2022-10-14T10:14:23.097Z,18.10
2022-10-14T10:17:08.812Z,18.20
2022-10-14T10:20:09.586Z,18.20
2022-10-14T10:23:19.438Z,18.30
2022-10-14T10:26:27.258Z,18.40
2022-10-14T10:29:25.576Z,18.40
2022-10-14T10:32:18.910Z,18.70
2022-10-14T10:35:24.822Z,18.80
2022-10-14T10:38:32.591Z,18.80
2022-10-14T10:41:31.468Z,18.90
2022-10-14T10:44:55.115Z,18.90
2022-10-14T10:47:56.723Z,19.00
2022-10-14T10:50:57.253Z,19.30
2022-10-14T10:54:02.717Z,19.40
2022-10-14T10:56:52.967Z,19.70
2022-10-14T10:59:45.036Z,20.00
2022-10-14T11:02:54.923Z,20.10
2022-10-14T11:05:59.290Z,20.30
2022-10-14T11:09:09.512Z,20.10
2022-10-14T11:12:23.355Z,20.30
2022-10-14T11:15:27.399Z,20.40
2022-10-14T11:18:20.777Z,20.60
2022-10-14T11:21:32.874Z,20.60
2022-10-14T11:24:33.947Z,20.60
2022-10-14T11:27:48.408Z,20.80
2022-10-14T11:30:52.508Z,20.90
2022-10-14T11:33:55.134Z,21.00
2022-10-14T11:36:40.562Z,20.90
2022-10-14T11:39:54.996Z,21.00
2022-10-14T11:43:09.823Z,20.90
2022-10-14T11:46:01.481Z,20.90
2022-10-14T11:48:59.887Z,21.00
2022-10-14T11:51:55.351Z,20.90
2022-10-14T11:54:53.370Z,20.90
2022-10-14T11:57:49.468Z,21.10
2022-10-14T12:00:37.597Z,21.20
2022-10-14T12:03:48.438Z,21.20
2022-10-14T12:06:49.265Z,21.20
2022-10-14T12:10:01.050Z,21.30
2022-10-14T12:12:47.419Z,21.30
2022-10-14T12:15:33.696Z,21.30
2022-10-14T12:18:19.700Z,21.30
2022-10-14T12:21:14.189Z,21.30
2022-10-14T12:24:09.070Z,21.20
2022-10-14T12:27:00.952Z,21.20
2022-10-14T12:29:50.795Z,21.40
2022-10-14T12:33:04.108Z,21.60
2022-10-14T12:35:59.967Z,21.60
2022-10-14T12:39:17.600Z,21.50
2022-10-14T12:42:14.729Z,21.40
2022-10-14T12:45:14.300Z,21.40
2022-10-14T12:48:25.358Z,21.40
2022-10-14T12:51:14.746Z,21.50
2022-10-14T12:54:16.310Z,21.60
2022-10-14T12:57:18.076Z,21.60
2022-10-14T13:00:24.679Z,21.50
2022-10-14T13:03:26.395Z,21.60
2022-10-14T13:06:32.274Z,21.60
2022-10-14T13:09:30.287Z,21.70
2022-10-14T13:12:22.014Z,21.60
2022-10-14T13:15:52.030Z,21.60
2022-10-14T13:18:50.812Z,21.60
2022-10-14T13:21:37.347Z,21.50
2022-10-14T13:24:27.810Z,21.50
2022-10-14T13:27:16.209Z,21.50
2022-10-14T13:30:10.043Z,21.40
2022-10-14T13:33:00.921Z,21.40
2022-10-14T13:35:49.784Z,21.50
2022-10-14T13:38:36.206Z,21.50
2022-10-14T13:41:30.575Z,21.60
2022-10-14T13:44:21.820Z,21.60
2022-10-14T13:47:13.816Z,21.80
2022-10-14T13:50:02.082Z,21.80
2022-10-14T13:52:58.789Z,21.90
2022-10-14T13:55:55.103Z,21.80
2022-10-14T13:58:42.273Z,21.60
2022-10-14T14:01:35.104Z,21.80
2022-10-14T14:04:34.485Z,22.00
2022-10-14T14:07:58.913Z,22.30
2022-10-14T14:10:31.164Z,22.90
2022-10-14T14:13:16.982Z,22.90
2022-10-14T14:16:03.471Z,22.70
2022-10-14T14:19:07.450Z,22.50
2022-10-14T14:22:16.014Z,22.70
2022-10-14T14:25:36.980Z,23.20
2022-10-14T14:28:32.665Z,23.00
2022-10-14T14:31:22.040Z,23.00
2022-10-14T14:34:07.849Z,23.50
2022-10-14T14:37:01.368Z,24.00
2022-10-14T14:39:57.378Z,24.40
2022-10-14T14:42:45.102Z,24.20
2022-10-14T14:45:37.576Z,23.90
2022-10-14T14:48:23.694Z,23.50
2022-10-14T14:51:12.890Z,23.50
2022-10-14T14:54:00.864Z,23.10
2022-10-14T14:56:57.547Z,22.80
2022-10-14T14:59:48.841Z,22.90
2022-10-14T15:02:35.665Z,22.80
2022-10-14T15:05:21.666Z,22.60
2022-10-14T15:08:21.051Z,22.50
2022-10-14T15:11:07.039Z,22.40
2022-10-14T15:13:55.161Z,22.30
2022-10-14T15:16:42.319Z,22.30
2022-10-14T15:19:38.317Z,22.20
2022-10-14T15:22:40.808Z,22.20
2022-10-14T15:25:31.916Z,22.40
2022-10-14T15:28:36.803Z,22.50
2022-10-14T15:31:24.009Z,22.50
2022-10-14T15:34:20.786Z,22.50
2022-10-14T15:37:10.954Z,22.30
2022-10-14T15:40:13.031Z,22.30
2022-10-14T15:42:59.192Z,22.10
2022-10-14T15:46:07.668Z,21.90
2022-10-14T15:48:57.691Z,21.90
2022-10-14T15:51:43.417Z,21.80
2022-10-14T15:54:29.907Z,21.70
2022-10-14T15:57:17.039Z,21.70
2022-10-14T16:00:07.937Z,21.50
2022-10-14T16:02:59.113Z,21.50
2022-10-14T16:05:44.770Z,21.40
2022-10-14T16:08:34.033Z,21.30
2022-10-14T16:11:30.911Z,21.20
2022-10-14T16:14:17.130Z,21.20
2022-10-14T16:17:04.018Z,21.10
2022-10-14T16:19:49.888Z,21.00
2022-10-14T16:22:36.061Z,20.90
2022-10-14T16:25:40.577Z,20.80
2022-10-14T16:28:27.173Z,20.80
2022-10-14T16:31:14.907Z,20.70
2022-10-14T16:34:01.888Z,20.60
2022-10-14T16:36:48.873Z,20.50
2022-10-14T16:39:35.521Z,20.50
2022-10-14T16:42:23.772Z,20.40
2022-10-14T16:45:10.133Z,20.40
2022-10-14T16:47:57.151Z,20.30
2022-10-14T16:50:42.906Z,20.20
2022-10-14T16:53:41.676Z,20.20
2022-10-14T16:56:46.456Z,20.20
2022-10-14T16:59:32.642Z,20.10
2022-10-14T17:02:19.170Z,20.10
2022-10-14T17:05:05.670Z,20.10
2022-10-14T17:07:53.362Z,20.00
2022-10-14T17:10:40.093Z,19.90
2022-10-14T17:13:26.917Z,19.90
2022-10-14T17:16:13.083Z,19.80
2022-10-14T17:19:02.003Z,19.70
2022-10-14T17:21:49.058Z,19.70
2022-10-14T17:24:34.887Z,19.70
2022-10-14T17:27:22.379Z,19.60
2022-10-14T17:30:09.841Z,19.60
2022-10-14T17:32:55.894Z,19.50
2022-10-14T17:35:41.941Z,19.50
2022-10-14T17:38:30.020Z,19.50
2022-10-14T17:41:16.678Z,19.40
2022-10-14T17:44:02.984Z,19.40
2022-10-14T17:46:48.883Z,19.40
2022-10-14T17:49:36.289Z,19.30
2022-10-14T17:52:22.114Z,19.30
2022-10-14T17:55:08.792Z,19.20
2022-10-14T17:57:54.970Z,19.20
2022-10-14T18:00:40.770Z,19.20
2022-10-14T18:03:26.307Z,19.20
2022-10-14T18:06:16.211Z,19.10
2022-10-14T18:09:08.715Z,19.10
2022-10-14T18:12:10.657Z,19.10
2022-10-14T18:14:57.103Z,19.00
2022-10-14T18:17:42.944Z,19.00
2022-10-14T18:20:28.940Z,19.00
2022-10-14T18:23:15.016Z,18.90
2022-10-14T18:26:13.273Z,18.90
2022-10-14T18:28:59.783Z,18.90
2022-10-14T18:31:45.881Z,18.80
2022-10-14T18:34:32.192Z,18.80
2022-10-14T18:37:18.105Z,18.70
2022-10-14T18:40:05.081Z,18.70
2022-10-14T18:42:51.083Z,18.70
2022-10-14T18:45:37.914Z,18.60
2022-10-14T18:48:23.865Z,18.60
2022-10-14T18:51:12.354Z,18.60
2022-10-14T18:54:01.088Z,18.50
2022-10-14T18:56:48.286Z,18.50
2022-10-14T18:59:35.702Z,18.40
2022-10-14T19:02:22.804Z,18.50
2022-10-14T19:05:09.170Z,18.50
2022-10-14T19:07:56.662Z,18.40
2022-10-14T19:10:42.844Z,18.40
2022-10-14T19:13:28.669Z,18.40
2022-10-14T19:16:42.698Z,18.40
2022-10-14T19:19:29.404Z,18.30
2022-10-14T19:22:15.669Z,18.30
2022-10-14T19:25:01.473Z,18.30
2022-10-14T19:27:47.880Z,18.30
2022-10-14T19:30:34.350Z,18.30
2022-10-14T19:33:19.750Z,18.20
2022-10-14T19:36:07.210Z,18.20
2022-10-14T19:38:57.811Z,18.20
2022-10-14T19:41:46.550Z,18.20
2022-10-14T19:47:24.446Z,18.30
2022-10-14T19:50:10.950Z,18.20
2022-10-14T19:52:56.319Z,18.30
2022-10-14T19:55:41.710Z,18.30
2022-10-14T19:58:27.814Z,18.30
2022-10-14T20:01:17.011Z,18.30
2022-10-14T20:04:04.079Z,18.30
2022-10-14T20:06:49.590Z,18.30
2022-10-14T20:09:35.551Z,18.40
2022-10-14T20:12:22.255Z,18.30
2022-10-14T20:15:09.885Z,18.30
2022-10-14T20:17:55.649Z,18.30
2022-10-14T20:20:41.603Z,18.30
2022-10-14T20:23:27.740Z,18.30
2022-10-14T20:26:17.505Z,18.40
2022-10-14T20:29:03.873Z,18.40
2022-10-14T20:31:50.401Z,18.30
2022-10-14T20:34:36.782Z,18.20
2022-10-14T20:37:25.734Z,18.20
2022-10-14T20:40:14.616Z,18.10
2022-10-14T20:43:01.793Z,18.10
2022-10-14T20:45:47.631Z,18.10
2022-10-14T20:48:33.991Z,18.10
2022-10-14T20:51:19.647Z,18.00
2022-10-14T20:54:08.385Z,18.00
2022-10-14T20:56:55.602Z,18.00
2022-10-14T20:59:41.610Z,18.00
2022-10-14T21:02:27.413Z,18.00
2022-10-14T21:05:14.460Z,18.00
2022-10-14T21:08:00.082Z,17.90
2022-10-14T21:10:46.671Z,17.90
2022-10-14T21:13:32.348Z,17.90
2022-10-14T21:16:33.664Z,17.90
2022-10-14T21:19:21.921Z,17.80
2022-10-14T21:22:09.458Z,17.80
2022-10-14T21:24:55.420Z,17.70
2022-10-14T21:27:41.766Z,17.60
2022-10-14T21:30:28.933Z,17.60
2022-10-14T21:33:14.883Z,17.60
2022-10-14T21:36:10.279Z,17.60
2022-10-14T21:39:01.394Z,17.60
2022-10-14T21:41:47.251Z,17.60
2022-10-14T21:44:32.907Z,17.60
2022-10-14T21:47:19.049Z,17.60
2022-10-14T21:50:05.080Z,17.60
2022-10-14T21:52:51.349Z,17.60
2022-10-14T21:55:38.042Z,17.60
2022-10-14T21:58:23.698Z,17.60
2022-10-14T22:01:23.920Z,17.50
2022-10-14T22:04:11.126Z,17.50
2022-10-14T22:06:58.087Z,17.50
2022-10-14T22:09:44.056Z,17.50
2022-10-14T22:12:30.677Z,17.50
2022-10-14T22:15:16.522Z,17.50
2022-10-14T22:18:02.881Z,17.50
2022-10-14T22:20:49.764Z,17.50
2022-10-14T22:23:39.983Z,17.50
2022-10-14T22:26:27.298Z,17.50
2022-10-14T22:29:15.367Z,17.50
2022-10-14T22:32:00.983Z,17.50
2022-10-14T22:34:50.268Z,17.50
2022-10-14T22:37:36.742Z,17.40
2022-10-14T22:40:22.794Z,17.40
2022-10-14T22:43:08.534Z,17.50
2022-10-14T22:46:10.682Z,17.40
2022-10-14T22:48:58.401Z,17.30
2022-10-14T22:51:44.013Z,17.20
2022-10-14T22:54:29.726Z,17.10
2022-10-14T22:57:15.580Z,17.10
2022-10-14T23:00:02.328Z,17.20
2022-10-14T23:02:48.028Z,17.30
2022-10-14T23:05:33.918Z,17.30
2022-10-14T23:08:21.113Z,17.30
2022-10-14T23:11:07.762Z,17.30
2022-10-14T23:13:54.335Z,17.30
2022-10-14T23:16:40.450Z,17.30
2022-10-14T23:19:26.821Z,17.30
2022-10-14T23:22:13.032Z,17.30
2022-10-14T23:24:58.978Z,17.30
2022-10-14T23:27:45.069Z,17.30
2022-10-14T23:30:31.169Z,17.30
2022-10-14T23:33:16.997Z,17.40
2022-10-14T23:36:07.690Z,17.40
2022-10-14T23:38:53.621Z,17.40
2022-10-14T23:41:39.633Z,17.40
2022-10-14T23:44:25.354Z,17.40
2022-10-14T23:47:11.110Z,17.40
2022-10-14T23:49:57.052Z,17.40
2022-10-14T23:52:42.771Z,17.30
2022-10-14T23:55:29.074Z,17.40
2022-10-14T23:58:15.101Z,17.40
